Time;durP1;ratioP1;P1;durP2;ratioP2;P2;SDS_P1;SDS_P2;PMS_P1;PMS_P2;Temp;Humidity;BMP_temperature;BMP_pressure;BME280_temperature;BME280_humidity;BME280_pressure;Samples;Min_cycle;Max_cycle;Signal;HPM_P1;HPM_P2
2022/06/18 00:01:00;;;;;;;;;;;;;;;;;;4181407;28;44286;-80
2022/06/18 00:03:02;;;;;;;;;;;;;;;;;;4191640;28;43559;-80
2022/06/18 00:05:04;;;;;;;;;;;;;;;;;;4192240;28;43544;-80
2022/06/18 00:07:06;;;;;;;;;;;;;;;;;;4188664;28;44320;-80
2022/06/18 00:09:08;;;;;;;;;;;;;;;;;;4179289;28;43055;-79
2022/06/18 00:13:39;;;;;;;;;;;;;;;;;;4186886;28;44201;-78
2022/06/18 00:15:42;;;;;;;;;;;;;;;;;;4200592;28;43102;-79
2022/06/18 00:17:44;;;;;;;;;;;;;;;;;;4183382;28;43138;-79
2022/06/18 00:19:46;;;;;;;;;;;;;;;;;;4188090;28;43055;-79
2022/06/18 00:21:49;;;;;;;;;;;;;;;;;;4189951;28;43348;-80
2022/06/18 00:23:51;;;;;;;;;;;;;;;;;;4184500;28;43540;-78
2022/06/18 00:25:53;;;;;;;;;;;;;;;;;;4186585;28;42751;-80
2022/06/18 00:27:55;;;;;;;;;;;;;;;;;;4187038;28;43309;-79
2022/06/18 00:29:57;;;;;;;;;;;;;;;;;;4183413;28;44007;-80
2022/06/18 00:31:59;;;;;;;;;;;;;;;;;;4189914;28;43237;-80
2022/06/18 00:34:01;;;;;;;;;;;;;;;;;;4181330;28;41147;-80
2022/06/18 00:36:03;;;;;;;;;;;;;;;;;;4183525;28;43058;-78
2022/06/18 00:38:05;;;;;;;;;;;;;;;;;;4184136;28;43193;-80
2022/06/18 00:40:07;;;;;;;;;;;;;;;;;;4185435;28;41811;-80
2022/06/18 00:42:09;;;;;;;;;;;;;;;;;;4184468;28;43097;-79
2022/06/18 00:44:11;;;;;;;;;;;;;;;;;;4183958;28;44419;-79
2022/06/18 00:46:13;;;;;;;;;;;;;;;;;;4185631;28;44254;-80
2022/06/18 00:48:15;;;;;;;;;;;;;;;;;;4187287;28;43097;-80
2022/06/18 00:50:17;;;;;;;;;;;;;;;;;;4198874;28;42879;-80
2022/06/18 00:52:19;;;;;;;;;;;;;;;;;;4183975;28;44478;-80
2022/06/18 00:54:21;;;;;;;;;;;;;;;;;;4178282;28;42816;-79
2022/06/18 00:56:25;;;;;;;;;;;;;;;;;;4193924;28;43537;-78
2022/06/18 00:58:27;;;;;;;;;;;;;;;;;;4187856;28;43518;-81
2022/06/18 01:00:29;;;;;;;;;;;;;;;;;;4191025;28;40429;-81
2022/06/18 01:02:31;;;;;;;;;;;;;;;;;;4193803;28;44341;-80
2022/06/18 01:04:33;;;;;;;;;;;;;;;;;;4191499;28;43608;-80
2022/06/18 01:06:35;;;;;;;;;;;;;;;;;;4175595;28;41848;-77
2022/06/18 01:08:37;;;;;;;;;;;;;;;;;;4172539;28;44327;-77
2022/06/18 01:10:41;;;;;;;;;;;;;;;;;;4181116;28;42571;-80
2022/06/18 01:12:43;;;;;;;;;;;;;;;;;;4199240;28;43201;-79
2022/06/18 01:14:45;;;;;;;;;;;;;;;;;;4179458;28;43100;-78
2022/06/18 01:16:47;;;;;;;;;;;;;;;;;;4179956;28;43173;-80
2022/06/18 01:18:49;;;;;;;;;;;;;;;;;;4182148;28;43227;-78
2022/06/18 01:20:51;;;;;;;;;;;;;;;;;;4179429;28;43054;-79
2022/06/18 01:22:53;;;;;;;;;;;;;;;;;;4175623;28;41631;-79
2022/06/18 01:24:55;;;;;;;;;;;;;;;;;;4177496;28;43717;-79
2022/06/18 01:26:57;;;;;;;;;;;;;;;;;;4183118;28;43853;-80
2022/06/18 01:28:59;;;;;;;;;;;;;;;;;;4178253;28;42906;-79
2022/06/18 01:31:01;;;;;;;;;;;;;;;;;;4179379;28;44497;-78
2022/06/18 01:33:03;;;;;;;;;;;;;;;;;;4186132;28;43263;-80
2022/06/18 01:35:05;;;;;;;;;;;;;;;;;;4190478;28;43335;-80
2022/06/18 01:37:07;;;;;;;;;;;;;;;;;;4185756;28;43999;-80
2022/06/18 01:39:09;;;;;;;;;;;;;;;;;;4183194;28;43051;-80
2022/06/18 01:43:32;;;;;;;;;;;;;;;;;;4180768;28;41117;-79
2022/06/18 01:45:34;;;;;;;;;;;;;;;;;;4177616;28;43139;-80
2022/06/18 01:47:36;;;;;;;;;;;;;;;;;;4183322;28;43197;-80
2022/06/18 01:49:38;;;;;;;;;;;;;;;;;;4183064;28;42837;-79
2022/06/18 01:51:40;;;;;;;;;;;;;;;;;;4196701;28;43056;-79
2022/06/18 01:53:48;;;;;;;;;;;;;;;;;;4185802;28;44503;-80
2022/06/18 01:55:50;;;;;;;;;;;;;;;;;;4182172;28;43473;-81
2022/06/18 01:57:52;;;;;;;;;;;;;;;;;;4180213;28;43144;-80
2022/06/18 01:59:54;;;;;;;;;;;;;;;;;;4201291;28;43202;-80
2022/06/18 02:01:57;;;;;;;;;;;;;;;;;;4185577;28;44355;-80
2022/06/18 02:03:59;;;;;;;;;;;;;;;;;;4184362;28;43249;-79
2022/06/18 02:06:01;;;;;;;;;;;;;;;;;;4175615;28;43573;-79
2022/06/18 02:08:03;;;;;;;;;;;;;;;;;;4178146;28;44268;-79
2022/06/18 02:10:05;;;;;;;;;;;;;;;;;;4184383;28;44638;-81
2022/06/18 02:12:07;;;;;;;;;;;;;;;;;;4180261;28;42058;-79
2022/06/18 02:14:09;;;;;;;;;;;;;;;;;;4178063;28;43094;-80
2022/06/18 02:16:11;;;;;;;;;;;;;;;;;;4177892;28;43333;-80
2022/06/18 02:18:13;;;;;;;;;;;;;;;;;;4180793;28;44324;-79
2022/06/18 02:20:15;;;;;;;;;;;;;;;;;;4185365;28;43123;-80
2022/06/18 02:22:17;;;;;;;;;;;;;;;;;;4186883;28;43209;-79
2022/06/18 02:24:19;;;;;;;;;;;;;;;;;;4184169;28;43205;-79
2022/06/18 02:26:21;;;;;;;;;;;;;;;;;;4198391;28;43551;-79
2022/06/18 02:28:23;;;;;;;;;;;;;;;;;;4172387;28;44194;-79
2022/06/18 02:30:25;;;;;;;;;;;;;;;;;;4184639;28;45036;-80
2022/06/18 02:32:27;;;;;;;;;;;;;;;;;;4200292;28;43361;-79
2022/06/18 02:34:31;;;;;;;;;;;;;;;;;;4194578;28;43161;-81
2022/06/18 02:36:33;;;;;;;;;;;;;;;;;;4183489;28;43972;-81
2022/06/18 02:38:35;;;;;;;;;;;;;;;;;;4190254;28;42377;-79
2022/06/18 02:40:37;;;;;;;;;;;;;;;;;;4182615;28;42886;-79
2022/06/18 02:42:39;;;;;;;;;;;;;;;;;;4180862;28;43325;-79
2022/06/18 02:44:41;;;;;;;;;;;;;;;;;;4188233;28;43214;-79
2022/06/18 02:46:43;;;;;;;;;;;;;;;;;;4187198;28;43184;-81
2022/06/18 02:48:45;;;;;;;;;;;;;;;;;;4181339;28;42571;-80
2022/06/18 02:50:47;;;;;;;;;;;;;;;;;;4188216;28;44202;-79
2022/06/18 02:52:49;;;;;;;;;;;;;;;;;;4184814;28;40103;-79
2022/06/18 02:54:51;;;;;;;;;;;;;;;;;;4180362;28;43225;-79
2022/06/18 02:56:53;;;;;;;;;;;;;;;;;;4186016;28;43187;-80
2022/06/18 02:58:55;;;;;;;;;;;;;;;;;;4185573;28;43398;-79
2022/06/18 03:00:57;;;;;;;;;;;;;;;;;;4185145;28;43105;-79
2022/06/18 03:02:59;;;;;;;;;;;;;;;;;;4186988;28;43242;-80
2022/06/18 03:05:01;;;;;;;;;;;;;;;;;;4184310;28;43160;-80
2022/06/18 03:07:03;;;;;;;;;;;;;;;;;;4185996;28;43025;-78
2022/06/18 03:09:05;;;;;;;;;;;;;;;;;;4184976;28;43146;-78
2022/06/18 03:13:28;;;;;;;;;;;;;;;;;;4182901;28;42331;-79
2022/06/18 03:15:30;;;;;;;;;;;;;;;;;;4186345;28;43197;-79
2022/06/18 03:17:32;;;;;;;;;;;;;;;;;;4181401;28;43283;-80
2022/06/18 03:19:34;;;;;;;;;;;;;;;;;;4183922;28;44373;-80
2022/06/18 03:21:36;;;;;;;;;;;;;;;;;;4202837;28;43951;-80
2022/06/18 03:23:38;;;;;;;;;;;;;;;;;;4183741;28;42106;-80
2022/06/18 03:25:40;;;;;;;;;;;;;;;;;;4183347;28;40949;-80
2022/06/18 03:27:42;;;;;;;;;;;;;;;;;;4189038;28;43153;-79
2022/06/18 03:29:46;;;;;;;;;;;;;;;;;;4178643;28;43611;-79
2022/06/18 03:31:48;;;;;;;;;;;;;;;;;;4184814;28;43995;-78
2022/06/18 03:33:50;;;;;;;;;;;;;;;;;;4181017;28;43279;-80
2022/06/18 03:35:52;;;;;;;;;;;;;;;;;;4182064;28;43323;-79
2022/06/18 03:37:56;;;;;;;;;;;;;;;;;;4183367;28;43267;-79
2022/06/18 03:39:58;;;;;;;;;;;;;;;;;;4195816;28;42144;-80
2022/06/18 03:42:01;;;;;;;;;;;;;;;;;;4189671;28;43243;-81
2022/06/18 03:44:03;;;;;;;;;;;;;;;;;;4181821;28;43093;-78
2022/06/18 03:46:05;;;;;;;;;;;;;;;;;;4186474;28;42314;-80
2022/06/18 03:48:08;;;;;;;;;;;;;;;;;;4188158;28;43239;-79
2022/06/18 03:50:10;;;;;;;;;;;;;;;;;;4187382;28;44583;-78
2022/06/18 03:52:12;;;;;;;;;;;;;;;;;;4182452;28;42258;-79
2022/06/18 03:54:14;;;;;;;;;;;;;;;;;;4196281;28;43379;-79
2022/06/18 03:56:16;;;;;;;;;;;;;;;;;;4183619;28;43228;-79
2022/06/18 03:58:18;;;;;;;;;;;;;;;;;;4198816;28;41266;-79
2022/06/18 04:00:20;;;;;;;;;;;;;;;;;;4187577;28;43361;-78
2022/06/18 04:02:22;;;;;;;;;;;;;;;;;;4181204;28;43088;-80
2022/06/18 04:04:24;;;;;;;;;;;;;;;;;;4185294;28;44617;-79
2022/06/18 04:06:26;;;;;;;;;;;;;;;;;;4182494;28;43235;-78
2022/06/18 04:08:28;;;;;;;;;;;;;;;;;;4185147;28;44933;-78
2022/06/18 04:10:30;;;;;;;;;;;;;;;;;;4186734;28;43822;-80
2022/06/18 04:12:32;;;;;;;;;;;;;;;;;;4200493;28;42035;-79
2022/06/18 04:14:34;;;;;;;;;;;;;;;;;;4189921;28;43518;-80
2022/06/18 04:16:37;;;;;;;;;;;;;;;;;;4189043;28;41965;-81
2022/06/18 04:18:41;;;;;;;;;;;;;;;;;;4190527;28;43195;-80
2022/06/18 04:20:43;;;;;;;;;;;;;;;;;;4187390;28;43107;-80
2022/06/18 04:22:45;;;;;;;;;;;;;;;;;;4180206;28;44364;-81
2022/06/18 04:24:47;;;;;;;;;;;;;;;;;;4202480;28;40748;-79
2022/06/18 04:26:49;;;;;;;;;;;;;;;;;;4191846;28;43347;-80
2022/06/18 04:28:51;;;;;;;;;;;;;;;;;;4190129;28;44527;-80
2022/06/18 04:30:53;;;;;;;;;;;;;;;;;;4185435;28;43562;-78
2022/06/18 04:32:55;;;;;;;;;;;;;;;;;;4186694;28;42011;-79
2022/06/18 04:34:57;;;;;;;;;;;;;;;;;;4193108;28;43788;-80
2022/06/18 04:36:59;;;;;;;;;;;;;;;;;;4183383;28;41992;-79
2022/06/18 04:39:01;;;;;;;;;;;;;;;;;;4181445;28;42604;-79
2022/06/18 04:41:03;;;;;;;;;;;;;;;;;;4182773;28;43139;-78
2022/06/18 04:43:05;;;;;;;;;;;;;;;;;;4183179;28;43221;-79
2022/06/18 04:45:07;;;;;;;;;;;;;;;;;;4181552;28;41888;-80
2022/06/18 04:47:09;;;;;;;;;;;;;;;;;;4185136;28;43851;-79
2022/06/18 04:49:12;;;;;;;;;;;;;;;;;;4178623;28;44024;-79
2022/06/18 04:51:14;;;;;;;;;;;;;;;;;;4180900;28;44297;-79
2022/06/18 04:53:16;;;;;;;;;;;;;;;;;;4183477;28;43237;-80
2022/06/18 04:55:18;;;;;;;;;;;;;;;;;;4187847;28;44705;-80
2022/06/18 04:57:20;;;;;;;;;;;;;;;;;;4188464;28;43358;-81
2022/06/18 04:59:23;;;;;;;;;;;;;;;;;;4188095;28;43233;-80
2022/06/18 05:01:25;;;;;;;;;;;;;;;;;;4192208;28;43246;-80
2022/06/18 05:03:27;;;;;;;;;;;;;;;;;;4183210;28;44223;-80
2022/06/18 05:05:29;;;;;;;;;;;;;;;;;;4186890;28;42014;-79
2022/06/18 05:07:31;;;;;;;;;;;;;;;;;;4189378;28;41567;-80
2022/06/18 05:09:33;;;;;;;;;;;;;;;;;;4187689;28;42392;-79
2022/06/18 05:11:35;;;;;;;;;;;;;;;;;;4185173;28;42489;-79
2022/06/18 05:13:37;;;;;;;;;;;;;;;;;;4183859;28;43586;-80
2022/06/18 05:15:39;;;;;;;;;;;;;;;;;;4189323;28;43176;-80
2022/06/18 05:17:43;;;;;;;;;;;;;;;;;;4181412;28;43435;-79
2022/06/18 05:19:45;;;;;;;;;;;;;;;;;;4187857;28;44691;-80
2022/06/18 05:21:47;;;;;;;;;;;;;;;;;;4188132;28;43339;-81
2022/06/18 05:23:49;;;;;;;;;;;;;;;;;;4179571;28;42156;-81
2022/06/18 05:25:51;;;;;;;;;;;;;;;;;;4184520;28;43456;-80
2022/06/18 05:27:53;;;;;;;;;;;;;;;;;;4184354;28;44140;-80
2022/06/18 05:29:55;;;;;;;;;;;;;;;;;;4188474;28;41353;-81
2022/06/18 05:31:58;;;;;;;;;;;;;;;;;;4183635;28;42904;-81
2022/06/18 05:34:00;;;;;;;;;;;;;;;;;;4178304;28;43555;-81
2022/06/18 05:36:02;;;;;;;;;;;;;;;;;;4182729;28;43319;-79
2022/06/18 05:38:04;;;;;;;;;;;;;;;;;;4182987;28;43127;-80
2022/06/18 05:40:06;;;;;;;;;;;;;;;;;;4183637;28;41993;-80
2022/06/18 05:42:08;;;;;;;;;;;;;;;;;;4185515;28;42865;-79
2022/06/18 05:44:10;;;;;;;;;;;;;;;;;;4179639;28;43224;-79
2022/06/18 05:46:13;;;;;;;;;;;;;;;;;;4178859;28;44233;-79
2022/06/18 05:48:15;;;;;;;;;;;;;;;;;;4176540;28;43572;-79
2022/06/18 05:50:17;;;;;;;;;;;;;;;;;;4172421;28;44122;-79
2022/06/18 05:52:19;;;;;;;;;;;;;;;;;;4212082;28;44218;-78
2022/06/18 05:54:21;;;;;;;;;;;;;;;;;;4184778;28;42793;-80
2022/06/18 05:56:24;;;;;;;;;;;;;;;;;;4182645;28;43289;-80
2022/06/18 05:58:26;;;;;;;;;;;;;;;;;;4176061;28;42243;-81
2022/06/18 06:00:28;;;;;;;;;;;;;;;;;;4181353;28;43527;-79
2022/06/18 06:02:30;;;;;;;;;;;;;;;;;;4195314;28;43015;-80
2022/06/18 06:04:32;;;;;;;;;;;;;;;;;;4183765;28;44426;-81
2022/06/18 06:06:34;;;;;;;;;;;;;;;;;;4176892;28;43442;-79
2022/06/18 06:08:36;;;;;;;;;;;;;;;;;;4177885;28;43535;-81
2022/06/18 06:12:59;;;;;;;;;;;;;;;;;;4182837;28;43304;-80
2022/06/18 06:15:01;;;;;;;;;;;;;;;;;;4174021;28;43471;-81
2022/06/18 06:17:03;;;;;;;;;;;;;;;;;;4185618;28;43133;-81
2022/06/18 06:19:05;;;;;;;;;;;;;;;;;;4180363;28;39949;-80
2022/06/18 06:21:07;;;;;;;;;;;;;;;;;;4185475;28;44679;-82
2022/06/18 06:23:09;;;;;;;;;;;;;;;;;;4185064;28;43110;-80
2022/06/18 06:25:11;;;;;;;;;;;;;;;;;;4185670;28;43220;-79
2022/06/18 06:27:13;;;;;;;;;;;;;;;;;;4181226;28;42610;-80
2022/06/18 06:29:16;;;;;;;;;;;;;;;;;;4182919;28;43595;-80
2022/06/18 06:31:18;;;;;;;;;;;;;;;;;;4181838;28;43232;-80
2022/06/18 06:33:20;;;;;;;;;;;;;;;;;;4180958;28;43566;-80
2022/06/18 06:35:22;;;;;;;;;;;;;;;;;;4179694;28;43222;-80
2022/06/18 06:37:24;;;;;;;;;;;;;;;;;;4181345;28;41841;-80
2022/06/18 06:39:26;;;;;;;;;;;;;;;;;;4180349;28;43016;-79
2022/06/18 06:41:28;;;;;;;;;;;;;;;;;;4176944;28;43543;-77
2022/06/18 06:43:30;;;;;;;;;;;;;;;;;;4172398;28;43838;-74
2022/06/18 06:45:32;;;;;;;;;;;;;;;;;;4172727;28;43432;-74
2022/06/18 06:47:35;;;;;;;;;;;;;;;;;;4173452;28;44268;-76
2022/06/18 06:49:37;;;;;;;;;;;;;;;;;;4174402;28;43231;-73
2022/06/18 06:51:39;;;;;;;;;;;;;;;;;;4173937;28;44348;-73
2022/06/18 06:53:41;;;;;;;;;;;;;;;;;;4172412;28;43132;-72
2022/06/18 06:58:04;;;;;;;;;;;;;;;;;;4177035;28;44204;-73
2022/06/18 07:00:06;;;;;;;;;;;;;;;;;;4172276;28;42837;-73
2022/06/18 07:02:08;;;;;;;;;;;;;;;;;;4177877;28;42743;-76
2022/06/18 07:04:10;;;;;;;;;;;;;;;;;;4173569;28;43179;-74
2022/06/18 07:06:13;;;;;;;;;;;;;;;;;;4177297;28;43555;-75
2022/06/18 07:08:15;;;;;;;;;;;;;;;;;;4189414;28;43114;-75
2022/06/18 07:10:17;;;;;;;;;;;;;;;;;;4175582;28;44272;-73
2022/06/18 07:12:19;;;;;;;;;;;;;;;;;;4178662;28;43951;-73
2022/06/18 07:14:21;;;;;;;;;;;;;;;;;;4176764;28;44396;-73
2022/06/18 07:16:23;;;;;;;;;;;;;;;;;;4177490;28;43249;-74
2022/06/18 07:18:26;;;;;;;;;;;;;;;;;;4173948;28;42036;-74
2022/06/18 07:20:28;;;;;;;;;;;;;;;;;;4177879;28;43182;-73
2022/06/18 07:22:32;;;;;;;;;;;;;;;;;;4185229;28;42750;-74
2022/06/18 07:24:34;;;;;;;;;;;;;;;;;;4175943;28;42850;-74
2022/06/18 07:26:36;;;;;;;;;;;;;;;;;;4174973;28;43269;-74
2022/06/18 07:28:38;;;;;;;;;;;;;;;;;;4178970;28;44532;-74
2022/06/18 07:30:40;;;;;;;;;;;;;;;;;;4170357;28;43190;-74
2022/06/18 07:32:42;;;;;;;;;;;;;;;;;;4171314;28;43057;-74
2022/06/18 07:34:45;;;;;;;;;;;;;;;;;;4170532;28;42730;-74
2022/06/18 07:36:47;;;;;;;;;;;;;;;;;;4170622;28;43327;-73
2022/06/18 07:38:49;;;;;;;;;;;;;;;;;;4171896;28;43125;-75
2022/06/18 07:40:51;;;;;;;;;;;;;;;;;;4173635;28;44222;-73
2022/06/18 07:42:53;;;;;;;;;;;;;;;;;;4182685;28;43399;-72
2022/06/18 07:44:55;;;;;;;;;;;;;;;;;;4181032;28;43178;-72
2022/06/18 07:47:03;;;;;;;;;;;;;;;;;;4178733;28;44319;-73
2022/06/18 07:49:06;;;;;;;;;;;;;;;;;;4172898;28;41460;-73
2022/06/18 07:51:08;;;;;;;;;;;;;;;;;;4185786;28;43121;-75
2022/06/18 07:53:11;;;;;;;;;;;;;;;;;;4175140;28;43524;-74
2022/06/18 07:55:13;;;;;;;;;;;;;;;;;;4172517;28;43043;-74
2022/06/18 07:57:15;;;;;;;;;;;;;;;;;;4175024;28;43886;-75
2022/06/18 07:59:19;;;;;;;;;;;;;;;;;;4174625;28;43147;-73
2022/06/18 08:01:21;;;;;;;;;;;;;;;;;;4185785;28;42244;-74
2022/06/18 08:03:23;;;;;;;;;;;;;;;;;;4172762;28;42015;-73
2022/06/18 08:05:27;;;;;;;;;;;;;;;;;;4189518;28;43582;-73
2022/06/18 08:07:29;;;;;;;;;;;;;;;;;;4175265;28;43222;-73
2022/06/18 08:09:32;;;;;;;;;;;;;;;;;;4174731;28;42622;-74
2022/06/18 08:11:34;;;;;;;;;;;;;;;;;;4174054;28;43216;-75
2022/06/18 08:13:36;;;;;;;;;;;;;;;;;;4175911;28;43942;-75
2022/06/18 08:15:38;;;;;;;;;;;;;;;;;;4178530;28;43158;-75
2022/06/18 08:17:41;;;;;;;;;;;;;;;;;;4176742;28;42309;-75
2022/06/18 08:19:43;;;;;;;;;;;;;;;;;;4178082;28;43357;-76
2022/06/18 08:21:45;;;;;;;;;;;;;;;;;;4172104;28;43279;-75
2022/06/18 08:23:47;;;;;;;;;;;;;;;;;;4171787;28;43227;-76
2022/06/18 08:25:49;;;;;;;;;;;;;;;;;;4174169;28;42733;-74
2022/06/18 08:27:51;;;;;;;;;;;;;;;;;;4178437;28;44240;-76
2022/06/18 08:29:53;;;;;;;;;;;;;;;;;;4174826;28;41636;-76
2022/06/18 08:31:55;;;;;;;;;;;;;;;;;;4175646;28;42963;-76
2022/06/18 08:33:57;;;;;;;;;;;;;;;;;;4176126;28;42733;-76
2022/06/18 08:35:59;;;;;;;;;;;;;;;;;;4171457;28;44732;-76
2022/06/18 08:38:01;;;;;;;;;;;;;;;;;;4172471;28;43398;-75
2022/06/18 08:40:03;;;;;;;;;;;;;;;;;;4172428;28;43534;-75
2022/06/18 08:42:05;;;;;;;;;;;;;;;;;;4171877;28;43261;-76
2022/06/18 08:44:07;;;;;;;;;;;;;;;;;;4175920;28;44028;-77
2022/06/18 08:46:09;;;;;;;;;;;;;;;;;;4168786;28;44831;-76
2022/06/18 08:48:11;;;;;;;;;;;;;;;;;;4176158;28;43981;-76
2022/06/18 08:50:13;;;;;;;;;;;;;;;;;;4202271;28;43607;-78
2022/06/18 08:52:15;;;;;;;;;;;;;;;;;;4172994;28;42840;-76
2022/06/18 08:54:18;;;;;;;;;;;;;;;;;;4178335;28;42180;-80
2022/06/18 08:56:20;;;;;;;;;;;;;;;;;;4178955;28;43048;-79
2022/06/18 08:58:24;;;;;;;;;;;;;;;;;;4184145;28;42826;-79
2022/06/18 09:00:26;;;;;;;;;;;;;;;;;;4173443;28;44272;-78
2022/06/18 09:02:28;;;;;;;;;;;;;;;;;;4179097;28;43053;-78
2022/06/18 09:04:30;;;;;;;;;;;;;;;;;;4182668;28;43072;-78
2022/06/18 09:06:32;;;;;;;;;;;;;;;;;;4183340;28;43308;-78
2022/06/18 09:08:35;;;;;;;;;;;;;;;;;;4171166;28;43297;-78
2022/06/18 09:10:37;;;;;;;;;;;;;;;;;;4176811;28;42787;-78
2022/06/18 09:12:39;;;;;;;;;;;;;;;;;;4177695;28;43226;-77
2022/06/18 09:14:41;;;;;;;;;;;;;;;;;;4192668;28;44339;-79
2022/06/18 09:16:43;;;;;;;;;;;;;;;;;;4177166;28;43084;-78
2022/06/18 09:18:45;;;;;;;;;;;;;;;;;;4177588;28;44601;-78
2022/06/18 09:20:48;;;;;;;;;;;;;;;;;;4182796;28;42817;-79
2022/06/18 09:22:50;;;;;;;;;;;;;;;;;;4177309;28;42050;-77
2022/06/18 09:24:52;;;;;;;;;;;;;;;;;;4179096;28;44136;-79
2022/06/18 09:26:54;;;;;;;;;;;;;;;;;;4182327;28;43914;-79
2022/06/18 09:28:56;;;;;;;;;;;;;;;;;;4213466;22;44160;-73
2022/06/18 09:30:58;;;;;;;;;;;;;;;;;;4211284;28;43093;-73
2022/06/18 09:33:00;;;;;;;;;;;;;;;;;;4208361;28;41015;-73
2022/06/18 09:35:02;;;;;;;;;;;;;;;;;;4216781;28;43590;-73
2022/06/18 09:37:04;;;;;;;;;;;;;;;;;;4208369;28;43065;-73
2022/06/18 09:39:07;;;;;;;;;;;;;;;;;;4209402;28;43831;-74
2022/06/18 09:41:09;;;;;;;;;;;;;;;;;;4209231;28;43890;-74
2022/06/18 09:43:11;;;;;;;;;;;;;;;;;;4207053;28;43082;-75
2022/06/18 09:45:13;;;;;;;;;;;;;;;;;;4205781;28;43348;-76
2022/06/18 09:47:15;;;;;;;;;;;;;;;;;;4210100;28;41798;-76
2022/06/18 09:49:17;;;;;;;;;;;;;;;;;;4210594;28;43435;-76
2022/06/18 09:51:21;;;;;;;;;;;;;;;;;;4213540;28;41235;-75
2022/06/18 09:53:23;;;;;;;;;;;;;;;;;;4209035;28;43552;-75
2022/06/18 09:55:25;;;;;;;;;;;;;;;;;;4213349;28;42973;-75
2022/06/18 09:57:27;;;;;;;;;;;;;;;;;;4211091;28;43100;-75
2022/06/18 09:59:29;;;;;;;;;;;;;;;;;;4206672;28;44300;-74
2022/06/18 10:01:31;;;;;;;;;;;;;;;;;;4202623;28;43069;-76
2022/06/18 10:08:15;;;;;;;;;;;;;;;;;;4203512;28;41616;-74
2022/06/18 10:10:17;;;;;;;;;;;;;;;;;;4215109;28;44349;-74
2022/06/18 10:12:19;;;;;;;;;;;;;;;;;;4206903;28;43119;-74
2022/06/18 10:14:21;;;;;;;;;;;;;;;;;;4210041;28;43378;-75
2022/06/18 10:16:23;;;;;;;;;;;;;;;;;;4210871;28;41648;-74
2022/06/18 10:18:25;;;;;;;;;;;;;;;;;;4207631;28;44441;-74
2022/06/18 10:20:28;;;;;;;;;;;;;;;;;;4213576;28;43268;-73
2022/06/18 10:22:30;;;;;;;;;;;;;;;;;;4209717;28;42845;-73
2022/06/18 10:24:32;;;;;;;;;;;;;;;;;;4210808;28;43056;-74
2022/06/18 10:26:34;;;;;;;;;;;;;;;;;;4209201;28;43292;-74
2022/06/18 10:28:36;;;;;;;;;;;;;;;;;;4205548;28;42259;-73
2022/06/18 10:30:38;;;;;;;;;;;;;;;;;;4213990;28;43024;-73
2022/06/18 10:32:41;;;;;;;;;;;;;;;;;;4211346;28;43886;-73
2022/06/18 10:34:43;;;;;;;;;;;;;;;;;;4212067;28;40695;-74
2022/06/18 10:36:45;;;;;;;;;;;;;;;;;;4210762;28;43334;-74
2022/06/18 10:38:47;;;;;;;;;;;;;;;;;;4210483;28;41299;-73
2022/06/18 10:40:49;;;;;;;;;;;;;;;;;;4213322;28;42945;-74
2022/06/18 10:42:51;;;;;;;;;;;;;;;;;;4210839;28;41433;-74
2022/06/18 10:44:53;;;;;;;;;;;;;;;;;;4209901;28;43467;-74
2022/06/18 10:46:55;;;;;;;;;;;;;;;;;;4209753;28;42769;-73
2022/06/18 10:48:58;;;;;;;;;;;;;;;;;;4212207;28;43561;-74
2022/06/18 10:51:00;;;;;;;;;;;;;;;;;;4208303;28;41831;-74
2022/06/18 10:53:02;;;;;;;;;;;;;;;;;;4207409;28;44689;-74
2022/06/18 10:55:04;;;;;;;;;;;;;;;;;;4206998;28;43556;-75
2022/06/18 10:57:06;;;;;;;;;;;;;;;;;;4212806;28;42595;-74
2022/06/18 10:59:08;;;;;;;;;;;;;;;;;;4206714;28;43184;-74
2022/06/18 11:01:10;;;;;;;;;;;;;;;;;;4209474;28;43256;-74
2022/06/18 11:03:12;;;;;;;;;;;;;;;;;;4208106;28;43284;-73
2022/06/18 11:05:14;;;;;;;;;;;;;;;;;;4208218;28;44569;-73
2022/06/18 11:07:16;;;;;;;;;;;;;;;;;;4212213;28;44193;-73
2022/06/18 11:09:18;;;;;;;;;;;;;;;;;;4204498;28;43222;-73
2022/06/18 11:11:20;;;;;;;;;;;;;;;;;;4204641;28;43235;-73
2022/06/18 11:13:22;;;;;;;;;;;;;;;;;;4207582;28;43316;-73
2022/06/18 11:15:24;;;;;;;;;;;;;;;;;;4207180;28;43340;-73
2022/06/18 11:17:27;;;;;;;;;;;;;;;;;;4206568;28;43426;-73
2022/06/18 11:19:29;;;;;;;;;;;;;;;;;;4205982;28;42844;-73
2022/06/18 11:21:31;;;;;;;;;;;;;;;;;;4212163;28;41679;-73
2022/06/18 11:23:33;;;;;;;;;;;;;;;;;;4209091;28;42819;-72
2022/06/18 11:25:54;;;;;;;;;;;;;;;;;;4205149;28;43099;-73
2022/06/18 11:27:56;;;;;;;;;;;;;;;;;;4202862;28;44163;-73
2022/06/18 11:29:58;;;;;;;;;;;;;;;;;;4212130;28;41974;-74
2022/06/18 11:32:00;;;;;;;;;;;;;;;;;;4210414;28;43029;-73
2022/06/18 11:34:02;;;;;;;;;;;;;;;;;;4209696;28;43519;-73
2022/06/18 11:36:04;;;;;;;;;;;;;;;;;;4208157;28;43099;-73
2022/06/18 11:38:06;;;;;;;;;;;;;;;;;;4210840;28;41233;-73
2022/06/18 11:40:09;;;;;;;;;;;;;;;;;;4212260;28;42558;-73
2022/06/18 11:42:12;;;;;;;;;;;;;;;;;;4201153;28;44461;-73
2022/06/18 11:44:14;;;;;;;;;;;;;;;;;;4221102;28;43512;-73
2022/06/18 11:46:16;;;;;;;;;;;;;;;;;;4211123;28;44315;-73
2022/06/18 11:48:18;;;;;;;;;;;;;;;;;;4211010;28;43248;-75
2022/06/18 11:50:23;;;;;;;;;;;;;;;;;;4211205;28;44535;-74
2022/06/18 11:52:25;;;;;;;;;;;;;;;;;;4207227;28;44504;-73
2022/06/18 11:54:27;;;;;;;;;;;;;;;;;;4214568;28;43220;-74
2022/06/18 11:56:29;;;;;;;;;;;;;;;;;;4209841;28;41542;-73
2022/06/18 11:58:33;;;;;;;;;;;;;;;;;;4220142;28;41494;-72
2022/06/18 12:00:35;;;;;;;;;;;;;;;;;;4216851;28;43329;-72
2022/06/18 12:02:37;;;;;;;;;;;;;;;;;;4212382;28;43226;-73
2022/06/18 12:04:39;;;;;;;;;;;;;;;;;;4215537;28;41188;-73
2022/06/18 12:06:42;;;;;;;;;;;;;;;;;;4215601;28;43490;-73
2022/06/18 12:08:59;;;;;;;;;;;;;;;;;;4213319;28;45032;-73
2022/06/18 12:11:03;;;;;;;;;;;;;;;;;;4212170;28;43669;-73
2022/06/18 12:13:05;;;;;;;;;;;;;;;;;;4211776;28;43715;-73
2022/06/18 12:15:07;;;;;;;;;;;;;;;;;;4211874;28;43838;-73
2022/06/18 12:17:09;;;;;;;;;;;;;;;;;;4215003;28;42547;-73
2022/06/18 12:19:12;;;;;;;;;;;;;;;;;;4210109;28;43207;-72
2022/06/18 12:21:14;;;;;;;;;;;;;;;;;;4207012;28;44152;-73
2022/06/18 12:23:16;;;;;;;;;;;;;;;;;;4211772;28;45915;-73
2022/06/18 12:25:18;;;;;;;;;;;;;;;;;;4211151;28;44299;-74
2022/06/18 12:27:22;;;;;;;;;;;;;;;;;;4209216;28;43433;-73
2022/06/18 12:29:24;;;;;;;;;;;;;;;;;;4206529;28;44675;-73
2022/06/18 12:31:26;;;;;;;;;;;;;;;;;;4210530;28;44080;-73
2022/06/18 12:33:28;;;;;;;;;;;;;;;;;;4219250;28;44617;-74
2022/06/18 12:35:31;;;;;;;;;;;;;;;;;;4206647;28;43218;-73
2022/06/18 12:37:33;;;;;;;;;;;;;;;;;;4204759;28;42703;-73
2022/06/18 12:39:35;;;;;;;;;;;;;;;;;;4206606;28;41793;-73
2022/06/18 12:41:40;;;;;;;;;;;;;;;;;;4209692;28;43193;-73
2022/06/18 12:43:42;;;;;;;;;;;;;;;;;;4211528;28;43433;-73
2022/06/18 12:45:44;;;;;;;;;;;;;;;;;;4215229;28;44454;-73
2022/06/18 12:47:47;;;;;;;;;;;;;;;;;;4216848;28;44386;-73
2022/06/18 12:49:49;;;;;;;;;;;;;;;;;;4210059;28;41000;-73
2022/06/18 12:51:52;;;;;;;;;;;;;;;;;;4204494;28;43619;-73
2022/06/18 12:53:54;;;;;;;;;;;;;;;;;;4210935;28;44704;-73
2022/06/18 12:55:56;;;;;;;;;;;;;;;;;;4212318;28;44158;-73
2022/06/18 12:57:58;;;;;;;;;;;;;;;;;;4219069;28;43096;-72
2022/06/18 13:00:02;;;;;;;;;;;;;;;;;;4210005;28;43585;-73
2022/06/18 13:02:04;;;;;;;;;;;;;;;;;;4213194;28;43202;-73
2022/06/18 13:04:06;;;;;;;;;;;;;;;;;;4223985;28;43106;-74
2022/06/18 13:06:08;;;;;;;;;;;;;;;;;;4217013;28;43405;-73
2022/06/18 13:08:10;;;;;;;;;;;;;;;;;;4215034;28;44340;-73
2022/06/18 13:10:13;;;;;;;;;;;;;;;;;;4213176;28;42307;-72
2022/06/18 13:12:15;;;;;;;;;;;;;;;;;;4216454;28;43309;-75
2022/06/18 13:14:17;;;;;;;;;;;;;;;;;;4216653;28;42949;-74
2022/06/18 13:16:20;;;;;;;;;;;;;;;;;;4225758;28;43021;-74
2022/06/18 13:18:22;;;;;;;;;;;;;;;;;;4212029;28;44522;-74
2022/06/18 13:20:24;;;;;;;;;;;;;;;;;;4210461;28;41920;-74
2022/06/18 13:22:26;;;;;;;;;;;;;;;;;;4205740;28;43029;-73
2022/06/18 13:29:09;;;;;;;;;;;;;;;;;;4214419;28;44193;-74
2022/06/18 13:31:11;;;;;;;;;;;;;;;;;;4211880;28;43210;-74
2022/06/18 13:33:14;;;;;;;;;;;;;;;;;;4211563;28;44470;-74
2022/06/18 13:35:16;;;;;;;;;;;;;;;;;;4214172;28;44164;-73
2022/06/18 13:37:18;;;;;;;;;;;;;;;;;;4208801;28;43863;-74
2022/06/18 13:39:21;;;;;;;;;;;;;;;;;;4207159;28;42799;-73
2022/06/18 13:41:27;;;;;;;;;;;;;;;;;;4209937;28;44228;-73
2022/06/18 13:43:29;;;;;;;;;;;;;;;;;;4209911;28;43220;-73
2022/06/18 13:45:31;;;;;;;;;;;;;;;;;;4206146;28;43670;-73
2022/06/18 13:47:35;;;;;;;;;;;;;;;;;;4205007;28;43238;-73
2022/06/18 13:49:37;;;;;;;;;;;;;;;;;;4206983;28;43051;-73
2022/06/18 13:51:39;;;;;;;;;;;;;;;;;;4205000;28;42203;-74
2022/06/18 13:53:42;;;;;;;;;;;;;;;;;;4225879;28;43406;-74
2022/06/18 13:55:45;;;;;;;;;;;;;;;;;;4227242;28;40427;-73
2022/06/18 13:57:47;;;;;;;;;;;;;;;;;;4220345;28;44329;-74
2022/06/18 13:59:49;;;;;;;;;;;;;;;;;;4222896;28;41733;-74
2022/06/18 14:01:52;;;;;;;;;;;;;;;;;;4221121;28;41792;-74
2022/06/18 14:03:54;;;;;;;;;;;;;;;;;;4218271;28;44421;-74
2022/06/18 14:05:56;;;;;;;;;;;;;;;;;;4215551;28;45789;-74
2022/06/18 14:07:59;;;;;;;;;;;;;;;;;;4226106;28;43602;-74
2022/06/18 14:10:01;;;;;;;;;;;;;;;;;;4219054;28;43210;-74
2022/06/18 14:12:03;;;;;;;;;;;;;;;;;;4214672;28;41489;-74
2022/06/18 14:14:06;;;;;;;;;;;;;;;;;;4230264;28;42832;-73
2022/06/18 14:16:08;;;;;;;;;;;;;;;;;;4211152;28;39975;-73